^^
Station Historical Data
 
Daily Summary for April 24, 2017 Units:  Both    English   Metric
« Previous Day
Next Day »
Daily Weekly Monthly Yearly Custom
  Current: High: Low: Average:
Temperature: 48.7 °F /  9.3 °C 53.8 °F /  12.1 °C 47.7 °F /  8.7 °C 50.2 °F /  10.1 °C
Dew Point: 46.6 °F /  8.1 °C 47.1 °F /  8.4 °C 43.7 °F /  6.5 °C 46 °F /  7.8 °C
Humidity: 92% 92% 78% 86%
Wind Speed: 2.0mph /  3.2km/h 10.1mph /  16.3km/h - 2.9mph /  4.7km/h
Wind Gust: 2.0mph /  3.2km/h 14.0mph /  22.5km/h - -
WindNNE - - East
Pressure: 30.05 in /  1017.5 hPa 30.05 in /  1017.5 hPa 30.02 in /  1016.5 hPa -
Precipitation: 0.00 in /  0 mm      
Historical Graphs
 
 
Tabular Data for April 24, 2017
Time Temperature Dew Point Pressure Wind Wind Speed Wind Gust Humidity Rainfall Rate (Hourly) solar Conditions
00:03 52.3 °F /  11.3 °C 46.0 °F /  7.8 °C 30.04in /  1017.2hPa East 2.9mph /  4.7km/h 5.0mph /  8km/h 79% 0.00in /  0mm 0.0 W/m2
00:09 52.5 °F /  11.4 °C 45.9 °F /  7.7 °C 30.04in /  1017.2hPa ENE 2.9mph /  4.7km/h 4.0mph /  6.4km/h 78% 0.00in /  0mm 0.0 W/m2
00:15 52.7 °F /  11.5 °C 46.0 °F /  7.8 °C 30.04in /  1017.2hPa Calm   7.0mph /  11.3km/h 78% 0.00in /  0mm 0.0 W/m2
00:21 53.1 °F /  11.7 °C 46.4 °F /  8 °C 30.04in /  1017.2hPa NNW 4.9mph /  7.9km/h 6.0mph /  9.7km/h 78% 0.00in /  0mm 0.0 W/m2
00:27 53.1 °F /  11.7 °C 46.4 °F /  8 °C 30.04in /  1017.2hPa NNW 2.0mph /  3.2km/h 9.0mph /  14.5km/h 78% 0.00in /  0mm 0.0 W/m2
00:33 53.1 °F /  11.7 °C 46.8 °F /  8.2 °C 30.04in /  1017.2hPa NNW 2.9mph /  4.7km/h 6.0mph /  9.7km/h 79% 0.00in /  0mm 0.0 W/m2
00:39 53.2 °F /  11.8 °C 46.9 °F /  8.3 °C 30.04in /  1017.2hPa NNW 6.9mph /  11.1km/h 9.0mph /  14.5km/h 79% 0.00in /  0mm 0.0 W/m2
00:45 53.1 °F /  11.7 °C 46.8 °F /  8.2 °C 30.03in /  1016.8hPa North 4.0mph /  6.4km/h 9.0mph /  14.5km/h 79% 0.00in /  0mm 0.0 W/m2
00:51 53.1 °F /  11.7 °C 46.8 °F /  8.2 °C 30.03in /  1016.8hPa NNE 6.9mph /  11.1km/h 10.0mph /  16.1km/h 79% 0.00in /  0mm 0.0 W/m2
00:58 53.4 °F /  11.9 °C 47.1 °F /  8.4 °C 30.03in /  1016.8hPa NE 4.0mph /  6.4km/h 10.0mph /  16.1km/h 79% 0.00in /  0mm 0.0 W/m2
01:04 53.6 °F /  12 °C 46.9 °F /  8.3 °C 30.03in /  1016.8hPa North 4.9mph /  7.9km/h 11.0mph /  17.7km/h 78% 0.00in /  0mm 0.0 W/m2
01:10 53.8 °F /  12.1 °C 47.1 °F /  8.4 °C 30.03in /  1016.8hPa NW 4.9mph /  7.9km/h 5.0mph /  8km/h 78% 0.00in /  0mm 0.0 W/m2
01:16 53.4 °F /  11.9 °C 46.8 °F /  8.2 °C 30.03in /  1016.8hPa NE 0.9mph /  1.4km/h 13.0mph /  20.9km/h 78% 0.00in /  0mm 0.0 W/m2
01:22 53.1 °F /  11.7 °C 46.8 °F /  8.2 °C 30.03in /  1016.8hPa NNE 6.0mph /  9.7km/h 8.0mph /  12.9km/h 79% 0.00in /  0mm 0.0 W/m2
01:28 53.1 °F /  11.7 °C 47.1 °F /  8.4 °C 30.03in /  1016.8hPa NNE 10.1mph /  16.3km/h 14.0mph /  22.5km/h 80% 0.00in /  0mm 0.0 W/m2
01:34 52.3 °F /  11.3 °C 46.8 °F /  8.2 °C 30.03in /  1016.8hPa NE 10.1mph /  16.3km/h 11.0mph /  17.7km/h 81% 0.00in /  0mm 0.0 W/m2
01:40 51.6 °F /  10.9 °C 46.2 °F /  7.9 °C 30.03in /  1016.8hPa NNE 2.9mph /  4.7km/h 11.0mph /  17.7km/h 82% 0.00in /  0mm 0.0 W/m2
01:46 51.3 °F /  10.7 °C 46.6 °F /  8.1 °C 30.02in /  1016.5hPa NNE 6.0mph /  9.7km/h 7.0mph /  11.3km/h 84% 0.00in /  0mm 0.0 W/m2
01:53 51.3 °F /  10.7 °C 46.6 °F /  8.1 °C 30.03in /  1016.8hPa North 2.9mph /  4.7km/h 11.0mph /  17.7km/h 84% 0.00in /  0mm 0.0 W/m2
01:59 51.1 °F /  10.6 °C 46.4 °F /  8 °C 30.02in /  1016.5hPa North 4.9mph /  7.9km/h 7.0mph /  11.3km/h 84% 0.00in /  0mm 0.0 W/m2
02:05 50.9 °F /  10.5 °C 46.6 °F /  8.1 °C 30.02in /  1016.5hPa North 2.9mph /  4.7km/h 11.0mph /  17.7km/h 85% 0.00in /  0mm 0.0 W/m2
02:11 50.7 °F /  10.4 °C 46.4 °F /  8 °C 30.02in /  1016.5hPa North 2.9mph /  4.7km/h 5.0mph /  8km/h 85% 0.00in /  0mm 0.0 W/m2
02:17 50.5 °F /  10.3 °C 46.2 °F /  7.9 °C 30.02in /  1016.5hPa North 4.0mph /  6.4km/h 5.0mph /  8km/h 85% 0.00in /  0mm 0.0 W/m2
02:23 50.4 °F /  10.2 °C 46.4 °F /  8 °C 30.02in /  1016.5hPa North 6.0mph /  9.7km/h 7.0mph /  11.3km/h 86% 0.00in /  0mm 0.0 W/m2
02:30 50.0 °F /  10 °C 46.0 °F /  7.8 °C 30.02in /  1016.5hPa North 4.0mph /  6.4km/h 6.0mph /  9.7km/h 86% 0.00in /  0mm 0.0 W/m2
02:36 49.8 °F /  9.9 °C 45.9 °F /  7.7 °C 30.02in /  1016.5hPa North 4.9mph /  7.9km/h 6.0mph /  9.7km/h 86% 0.00in /  0mm 0.0 W/m2
02:42 50.0 °F /  10 °C 46.0 °F /  7.8 °C 30.02in /  1016.5hPa North 2.9mph /  4.7km/h 4.0mph /  6.4km/h 86% 0.00in /  0mm 0.0 W/m2
02:48 49.8 °F /  9.9 °C 45.9 °F /  7.7 °C 30.02in /  1016.5hPa North 2.9mph /  4.7km/h 5.0mph /  8km/h 86% 0.00in /  0mm 0.0 W/m2
02:54 49.8 °F /  9.9 °C 45.9 °F /  7.7 °C 30.02in /  1016.5hPa North 2.9mph /  4.7km/h 4.0mph /  6.4km/h 86% 0.00in /  0mm 0.0 W/m2
03:00 49.8 °F /  9.9 °C 45.9 °F /  7.7 °C 30.02in /  1016.5hPa North 4.0mph /  6.4km/h 4.0mph /  6.4km/h 86% 0.00in /  0mm 0.0 W/m2
03:06 49.8 °F /  9.9 °C 45.9 °F /  7.7 °C 30.02in /  1016.5hPa North 4.0mph /  6.4km/h 4.0mph /  6.4km/h 86% 0.00in /  0mm 0.0 W/m2
03:12 49.6 °F /  9.8 °C 45.7 °F /  7.6 °C 30.02in /  1016.5hPa North 2.0mph /  3.2km/h 3.0mph /  4.8km/h 86% 0.00in /  0mm 0.0 W/m2
03:19 49.5 °F /  9.7 °C 45.5 °F /  7.5 °C 30.02in /  1016.5hPa North 0.9mph /  1.4km/h 3.0mph /  4.8km/h 86% 0.00in /  0mm 0.0 W/m2
03:25 48.7 °F /  9.3 °C 44.8 °F /  7.1 °C 30.02in /  1016.5hPa Calm     86% 0.00in /  0mm 0.0 W/m2
03:31 48.2 °F /  9 °C 44.2 °F /  6.8 °C 30.02in /  1016.5hPa Calm     86% 0.00in /  0mm 0.0 W/m2
03:37 47.7 °F /  8.7 °C 43.7 °F /  6.5 °C 30.02in /  1016.5hPa North 2.0mph /  3.2km/h 2.0mph /  3.2km/h 86% 0.00in /  0mm 0.0 W/m2
03:44 47.7 °F /  8.7 °C 44.1 °F /  6.7 °C 30.02in /  1016.5hPa Calm   2.0mph /  3.2km/h 87% 0.00in /  0mm 0.0 W/m2
04:02 48.0 °F /  8.9 °C 45.0 °F /  7.2 °C 30.03in /  1016.8hPa Calm   3.0mph /  4.8km/h 89% 0.00in /  0mm 0.0 W/m2
04:08 48.0 °F /  8.9 °C 45.0 °F /  7.2 °C 30.03in /  1016.8hPa NNE 0.9mph /  1.4km/h 3.0mph /  4.8km/h 89% 0.00in /  0mm 0.0 W/m2
04:14 48.0 °F /  8.9 °C 45.0 °F /  7.2 °C 30.02in /  1016.5hPa NNE 4.9mph /  7.9km/h 6.0mph /  9.7km/h 89% 0.00in /  0mm 0.0 W/m2
04:20 48.4 °F /  9.1 °C 45.5 °F /  7.5 °C 30.03in /  1016.8hPa North 0.9mph /  1.4km/h 5.0mph /  8km/h 90% 0.00in /  0mm 0.0 W/m2
04:27 48.4 °F /  9.1 °C 45.5 °F /  7.5 °C 30.02in /  1016.5hPa Calm   4.0mph /  6.4km/h 90% 0.00in /  0mm 0.0 W/m2
04:33 48.4 °F /  9.1 °C 45.5 °F /  7.5 °C 30.03in /  1016.8hPa North 2.9mph /  4.7km/h 4.0mph /  6.4km/h 90% 0.00in /  0mm 0.0 W/m2
04:39 48.4 °F /  9.1 °C 45.5 °F /  7.5 °C 30.03in /  1016.8hPa Calm   2.0mph /  3.2km/h 90% 0.00in /  0mm 0.0 W/m2
04:45 48.0 °F /  8.9 °C 45.1 °F /  7.3 °C 30.03in /  1016.8hPa North 0.9mph /  1.4km/h 2.0mph /  3.2km/h 90% 0.00in /  0mm 0.0 W/m2
04:51 47.8 °F /  8.8 °C 45.0 °F /  7.2 °C 30.03in /  1016.8hPa North 2.0mph /  3.2km/h 4.0mph /  6.4km/h 90% 0.00in /  0mm 0.0 W/m2
04:57 48.7 °F /  9.3 °C 45.9 °F /  7.7 °C 30.03in /  1016.8hPa NNE 2.9mph /  4.7km/h 3.0mph /  4.8km/h 90% 0.00in /  0mm 0.0 W/m2
05:04 48.9 °F /  9.4 °C 46.0 °F /  7.8 °C 30.03in /  1016.8hPa Calm   3.0mph /  4.8km/h 90% 0.00in /  0mm 0.0 W/m2
05:10 49.1 °F /  9.5 °C 46.2 °F /  7.9 °C 30.03in /  1016.8hPa NNE 0.9mph /  1.4km/h 3.0mph /  4.8km/h 90% 0.00in /  0mm 0.0 W/m2
05:16 49.3 °F /  9.6 °C 46.4 °F /  8 °C 30.03in /  1016.8hPa NNE 0.9mph /  1.4km/h 3.0mph /  4.8km/h 90% 0.00in /  0mm 0.0 W/m2
05:22 48.9 °F /  9.4 °C 46.0 °F /  7.8 °C 30.03in /  1016.8hPa NNE 0.9mph /  1.4km/h 2.0mph /  3.2km/h 90% 0.00in /  0mm 0.0 W/m2
05:29 48.6 °F /  9.2 °C 45.7 °F /  7.6 °C 30.03in /  1016.8hPa NNE 4.0mph /  6.4km/h 4.0mph /  6.4km/h 90% 0.00in /  0mm 0.0 W/m2
05:35 48.6 °F /  9.2 °C 45.7 °F /  7.6 °C 30.03in /  1016.8hPa NNE 0.9mph /  1.4km/h 4.0mph /  6.4km/h 90% 0.00in /  0mm 0.0 W/m2
05:41 48.6 °F /  9.2 °C 46.0 °F /  7.8 °C 30.03in /  1016.8hPa NNE 2.9mph /  4.7km/h 6.0mph /  9.7km/h 91% 0.00in /  0mm 0.0 W/m2
05:47 48.9 °F /  9.4 °C 46.4 °F /  8 °C 30.04in /  1017.2hPa NNE 4.0mph /  6.4km/h 4.0mph /  6.4km/h 91% 0.00in /  0mm 0.0 W/m2
05:53 48.6 °F /  9.2 °C 46.0 °F /  7.8 °C 30.04in /  1017.2hPa Calm   2.0mph /  3.2km/h 91% 0.00in /  0mm 0.0 W/m2
05:59 48.6 °F /  9.2 °C 46.0 °F /  7.8 °C 30.04in /  1017.2hPa NNE 0.9mph /  1.4km/h 2.0mph /  3.2km/h 91% 0.00in /  0mm 0.0 W/m2
06:05 48.6 °F /  9.2 °C 46.0 °F /  7.8 °C 30.04in /  1017.2hPa NNE 2.0mph /  3.2km/h 4.0mph /  6.4km/h 91% 0.00in /  0mm 0.0 W/m2
06:11 48.6 °F /  9.2 °C 46.0 °F /  7.8 °C 30.05in /  1017.5hPa Calm   3.0mph /  4.8km/h 91% 0.00in /  0mm 7.0 W/m2
06:18 48.6 °F /  9.2 °C 46.0 °F /  7.8 °C 30.05in /  1017.5hPa NNE 2.0mph /  3.2km/h 4.0mph /  6.4km/h 91% 0.00in /  0mm 9.0 W/m2
06:24 48.7 °F /  9.3 °C 46.6 °F /  8.1 °C 30.05in /  1017.5hPa NNE 2.0mph /  3.2km/h 2.0mph /  3.2km/h 92% 0.00in /  0mm 11.0 W/m2
Regenstein, Windhoek, Namibia
Compliments of Weather Underground - 2.75 mb